createdAt,value
2023-01-19T00:00:30.840Z,13.80
2023-01-19T00:02:57.379Z,16.42
2023-01-19T00:05:23.763Z,14.50
2023-01-19T00:07:50.224Z,15.65
2023-01-19T00:10:17.056Z,10.43
2023-01-19T00:12:43.439Z,13.88
2023-01-19T00:15:10.336Z,15.25
2023-01-19T00:17:36.831Z,13.20
2023-01-19T00:20:04.027Z,14.20
2023-01-19T00:22:30.394Z,12.88
2023-01-19T00:24:56.842Z,13.57
2023-01-19T00:27:23.316Z,14.80
2023-01-19T00:29:49.634Z,13.63
2023-01-19T00:32:16.169Z,11.35
2023-01-19T00:34:42.586Z,11.60
2023-01-19T00:37:09.915Z,10.95
2023-01-19T00:39:36.297Z,10.95
2023-01-19T00:42:03.530Z,11.52
2023-01-19T00:44:29.880Z,14.02
2023-01-19T00:46:56.305Z,15.27
2023-01-19T00:49:22.643Z,14.15
2023-01-19T00:51:48.959Z,12.48
2023-01-19T00:54:15.506Z,14.10
2023-01-19T00:56:41.870Z,13.38
2023-01-19T00:59:08.239Z,18.13
2023-01-19T01:01:44.995Z,14.63
2023-01-19T01:04:11.976Z,17.30
2023-01-19T01:06:38.351Z,13.98
2023-01-19T01:09:04.822Z,15.70
2023-01-19T01:11:31.187Z,17.40
2023-01-19T01:13:57.553Z,20.33
2023-01-19T01:16:25.348Z,16.15
2023-01-19T01:18:51.878Z,16.90
2023-01-19T01:21:18.235Z,15.60
2023-01-19T01:23:44.567Z,21.17
2023-01-19T01:26:10.912Z,21.92
2023-01-19T01:28:37.459Z,18.58
2023-01-19T01:31:04.008Z,15.70
2023-01-19T01:33:41.045Z,16.40
2023-01-19T01:36:09.059Z,17.90
2023-01-19T01:38:35.443Z,14.18
2023-01-19T01:41:01.763Z,16.00
2023-01-19T01:43:51.525Z,16.13
2023-01-19T01:46:18.992Z,16.13
2023-01-19T01:49:04.197Z,19.92
2023-01-19T01:51:37.350Z,22.58
2023-01-19T01:54:16.651Z,14.73
2023-01-19T01:56:46.600Z,13.77
2023-01-19T01:59:18.249Z,16.85
2023-01-19T02:01:44.792Z,16.42
2023-01-19T02:04:11.246Z,12.63
2023-01-19T02:06:37.723Z,17.42
2023-01-19T02:09:08.653Z,11.80
2023-01-19T02:11:36.026Z,17.08
2023-01-19T02:14:05.572Z,13.70
2023-01-19T02:16:32.365Z,15.30
2023-01-19T02:18:58.691Z,18.30
2023-01-19T02:21:52.352Z,14.70
2023-01-19T02:24:19.003Z,14.57
2023-01-19T02:26:47.597Z,14.13
2023-01-19T02:29:20.102Z,13.57
2023-01-19T02:31:46.897Z,13.13
2023-01-19T02:34:16.762Z,14.02
2023-01-19T02:36:51.892Z,14.65
2023-01-19T02:39:22.579Z,13.57
2023-01-19T02:41:53.524Z,15.77
2023-01-19T02:44:22.477Z,14.25
2023-01-19T02:46:48.888Z,14.48
2023-01-19T02:49:15.266Z,10.00
2023-01-19T02:51:43.921Z,13.60
2023-01-19T02:54:41.571Z,17.77
2023-01-19T02:57:43.344Z,14.95
2023-01-19T03:00:35.378Z,15.90
2023-01-19T03:03:16.210Z,12.60
2023-01-19T03:05:54.354Z,14.70
2023-01-19T03:08:47.902Z,11.90
2023-01-19T03:11:14.638Z,15.45
2023-01-19T03:14:03.683Z,13.65
2023-01-19T03:16:38.313Z,14.00
2023-01-19T03:19:15.243Z,10.43
2023-01-19T03:21:47.333Z,15.80
2023-01-19T03:24:16.124Z,13.65
2023-01-19T03:26:51.597Z,15.40
2023-01-19T03:29:21.850Z,14.18
2023-01-19T03:31:53.043Z,15.13
2023-01-19T03:34:20.859Z,15.10
2023-01-19T03:36:53.503Z,13.18
2023-01-19T03:39:23.640Z,16.00
2023-01-19T03:41:54.876Z,14.65
2023-01-19T03:44:22.289Z,11.50
2023-01-19T03:46:48.628Z,16.13
2023-01-19T03:49:15.145Z,15.50
2023-01-19T03:51:41.684Z,14.13
2023-01-19T03:54:10.663Z,13.73
2023-01-19T03:56:37.322Z,15.48
2023-01-19T03:59:04.010Z,20.08
2023-01-19T04:01:30.405Z,14.93
2023-01-19T04:03:56.968Z,14.05
2023-01-19T04:06:23.740Z,17.33
2023-01-19T04:08:51.128Z,15.13
2023-01-19T04:11:17.991Z,18.00
2023-01-19T04:13:44.613Z,22.23
2023-01-19T04:16:11.684Z,18.35
2023-01-19T04:18:38.246Z,17.00
2023-01-19T04:21:07.157Z,14.20
2023-01-19T04:23:33.778Z,15.65
2023-01-19T04:26:02.163Z,16.10
2023-01-19T04:28:28.715Z,13.70
2023-01-19T04:30:55.164Z,17.60
2023-01-19T04:33:21.801Z,17.95
2023-01-19T04:35:49.639Z,15.98
2023-01-19T04:38:16.591Z,17.20
2023-01-19T04:40:42.861Z,17.90
2023-01-19T04:43:09.273Z,15.57
2023-01-19T04:45:35.549Z,13.93
2023-01-19T04:48:01.987Z,16.00
2023-01-19T04:50:28.373Z,14.18
2023-01-19T04:52:54.736Z,16.77
2023-01-19T04:55:21.075Z,18.55
2023-01-19T04:57:47.364Z,16.17
2023-01-19T05:00:14.164Z,14.73
2023-01-19T05:02:40.696Z,16.23
2023-01-19T05:05:07.251Z,16.45
2023-01-19T05:07:33.592Z,18.23
2023-01-19T05:09:59.952Z,18.50
2023-01-19T05:12:26.286Z,14.25
2023-01-19T05:14:52.575Z,16.55
2023-01-19T05:17:18.888Z,15.95
2023-01-19T05:19:45.162Z,15.80
2023-01-19T05:22:11.477Z,16.50
2023-01-19T05:24:37.812Z,16.58
2023-01-19T05:27:04.111Z,18.08
2023-01-19T05:29:30.809Z,20.63
2023-01-19T05:31:57.464Z,21.40
2023-01-19T05:34:24.123Z,16.70
2023-01-19T05:36:50.474Z,16.75
2023-01-19T05:39:17.013Z,19.40
2023-01-19T05:41:43.278Z,19.02
2023-01-19T05:44:09.887Z,16.38
2023-01-19T05:46:36.293Z,18.50
2023-01-19T05:49:02.642Z,18.00
2023-01-19T05:51:28.888Z,16.67
2023-01-19T05:53:55.180Z,16.63
2023-01-19T05:56:21.475Z,12.73
2023-01-19T05:58:47.845Z,22.13
2023-01-19T06:01:14.171Z,22.45
2023-01-19T06:03:40.498Z,16.08
2023-01-19T06:06:07.067Z,16.88
2023-01-19T06:08:33.529Z,23.98
2023-01-19T06:10:59.841Z,16.98
2023-01-19T06:13:26.563Z,16.20
2023-01-19T06:16:00.264Z,22.10
2023-01-19T06:18:27.628Z,15.65
2023-01-19T06:20:54.034Z,17.10
2023-01-19T06:23:20.338Z,17.98
2023-01-19T06:25:48.913Z,17.33
2023-01-19T06:28:15.196Z,19.23
2023-01-19T06:30:41.504Z,15.02
2023-01-19T06:33:08.011Z,14.48
2023-01-19T06:35:34.331Z,19.15
2023-01-19T06:38:00.608Z,16.67
2023-01-19T06:40:27.031Z,17.23
2023-01-19T06:42:53.304Z,14.50
2023-01-19T06:45:19.617Z,17.42
2023-01-19T06:47:47.801Z,13.43
2023-01-19T06:50:14.193Z,18.98
2023-01-19T06:52:40.446Z,16.10
2023-01-19T06:55:07.051Z,14.38
2023-01-19T06:57:33.355Z,15.88
2023-01-19T06:59:59.648Z,15.43
2023-01-19T07:02:28.556Z,17.42
2023-01-19T07:04:56.336Z,18.00
2023-01-19T07:07:22.662Z,21.55
2023-01-19T07:09:49.101Z,16.27
2023-01-19T07:12:19.956Z,15.50
2023-01-19T07:14:46.275Z,21.50
2023-01-19T07:17:12.634Z,18.70
2023-01-19T07:19:38.997Z,16.00
2023-01-19T07:22:05.273Z,15.80
2023-01-19T07:24:31.525Z,20.83
2023-01-19T07:26:57.830Z,17.38
2023-01-19T07:29:24.106Z,15.55
2023-01-19T07:31:50.522Z,17.88
2023-01-19T07:34:16.937Z,14.32
2023-01-19T07:36:43.232Z,21.52
2023-01-19T07:39:09.505Z,18.52
2023-01-19T07:41:35.788Z,19.17
2023-01-19T07:44:02.086Z,16.95
2023-01-19T07:46:28.404Z,18.38
2023-01-19T07:48:54.718Z,16.52
2023-01-19T07:51:21.008Z,14.88
2023-01-19T07:53:49.772Z,13.07
2023-01-19T07:56:16.189Z,14.35
2023-01-19T07:58:42.774Z,16.60
2023-01-19T08:01:11.874Z,15.15
2023-01-19T08:03:38.641Z,12.18
2023-01-19T08:06:05.835Z,12.57
2023-01-19T08:08:33.579Z,14.13
2023-01-19T08:11:00.263Z,14.13
2023-01-19T08:13:27.138Z,13.77
2023-01-19T08:15:53.913Z,11.88
2023-01-19T08:18:21.065Z,14.52
2023-01-19T08:20:47.460Z,14.73
2023-01-19T08:23:13.738Z,12.82
2023-01-19T08:25:43.884Z,13.85
2023-01-19T08:28:11.360Z,12.43
2023-01-19T08:30:38.628Z,12.88
2023-01-19T08:33:04.998Z,15.07
2023-01-19T08:35:32.355Z,15.90
2023-01-19T08:37:59.442Z,14.38
2023-01-19T08:40:25.719Z,17.83
2023-01-19T08:42:52.032Z,17.38
2023-01-19T08:45:18.303Z,12.15
2023-01-19T08:47:44.632Z,13.45
2023-01-19T08:50:11.292Z,11.40
2023-01-19T08:52:37.574Z,14.68
2023-01-19T08:55:04.276Z,12.27
2023-01-19T08:57:30.661Z,13.27
2023-01-19T08:59:56.928Z,11.95
2023-01-19T09:02:23.271Z,11.35
2023-01-19T09:04:49.583Z,11.05
2023-01-19T09:07:15.920Z,11.80
2023-01-19T09:09:42.227Z,10.48
2023-01-19T09:12:08.594Z,11.52
2023-01-19T09:14:34.864Z,9.65
2023-01-19T09:17:01.137Z,13.38
2023-01-19T09:19:27.445Z,14.85
2023-01-19T09:21:54.385Z,12.82
2023-01-19T09:24:20.842Z,12.88
2023-01-19T09:26:47.149Z,9.20
2023-01-19T09:29:13.432Z,12.40
2023-01-19T09:31:39.940Z,9.50
2023-01-19T09:34:06.776Z,9.75
2023-01-19T09:36:33.121Z,12.45
2023-01-19T09:38:59.440Z,9.68
2023-01-19T09:41:26.251Z,10.02
2023-01-19T09:43:59.074Z,12.13
2023-01-19T09:46:34.965Z,9.45
2023-01-19T09:49:05.243Z,7.70
2023-01-19T09:51:36.573Z,10.65
2023-01-19T09:54:29.711Z,10.35
2023-01-19T09:56:56.089Z,9.20
2023-01-19T09:59:26.650Z,10.30
2023-01-19T10:01:58.778Z,8.32
2023-01-19T10:04:36.552Z,6.68
2023-01-19T10:07:15.989Z,6.95
2023-01-19T10:10:17.679Z,9.57
2023-01-19T10:12:51.218Z,9.95
2023-01-19T10:15:42.252Z,6.38
2023-01-19T10:18:19.770Z,7.75
2023-01-19T10:20:55.163Z,6.40
2023-01-19T10:23:38.342Z,11.93
2023-01-19T10:26:10.029Z,7.28
2023-01-19T10:28:38.499Z,7.38
2023-01-19T10:31:05.980Z,7.72
2023-01-19T10:33:33.711Z,7.15
2023-01-19T10:36:04.236Z,8.43
2023-01-19T10:38:31.870Z,8.07
2023-01-19T10:41:19.153Z,8.45
2023-01-19T10:43:47.411Z,9.95
2023-01-19T10:46:31.853Z,7.25
2023-01-19T10:48:58.250Z,8.05
2023-01-19T10:51:24.648Z,9.77
2023-01-19T10:54:00.977Z,7.60
2023-01-19T10:56:31.666Z,6.78
2023-01-19T10:58:59.773Z,7.72
2023-01-19T11:01:28.226Z,4.78
2023-01-19T11:03:55.181Z,6.30
2023-01-19T11:06:26.240Z,5.47
2023-01-19T11:08:54.150Z,8.52
2023-01-19T11:11:23.138Z,9.18
2023-01-19T11:14:10.953Z,6.93
2023-01-19T11:16:37.771Z,7.10
2023-01-19T11:19:04.411Z,7.85
2023-01-19T11:21:32.452Z,4.47
2023-01-19T11:24:04.796Z,5.22
2023-01-19T11:26:40.912Z,5.85
2023-01-19T11:29:16.564Z,6.70
2023-01-19T11:31:43.770Z,6.00
2023-01-19T11:34:33.034Z,5.13
2023-01-19T11:37:05.186Z,7.28
2023-01-19T11:39:44.727Z,5.10
2023-01-19T11:42:13.211Z,6.25
2023-01-19T11:44:51.420Z,6.85
2023-01-19T11:47:45.880Z,6.15
2023-01-19T11:50:15.613Z,5.20
2023-01-19T11:52:51.997Z,6.13
2023-01-19T11:55:32.756Z,5.97
2023-01-19T11:57:59.722Z,4.85
2023-01-19T12:00:45.107Z,6.82
2023-01-19T12:03:21.063Z,8.68
2023-01-19T12:05:51.479Z,5.70
2023-01-19T12:08:27.946Z,5.32
2023-01-19T12:10:57.255Z,7.45
2023-01-19T12:13:26.212Z,4.85
2023-01-19T12:16:00.798Z,5.75
2023-01-19T12:18:33.742Z,5.25
2023-01-19T12:21:01.901Z,5.68
2023-01-19T12:23:29.947Z,7.75
2023-01-19T12:26:22.351Z,4.90
2023-01-19T12:28:51.141Z,7.18
2023-01-19T12:31:19.639Z,5.82
2023-01-19T12:33:46.453Z,6.30
2023-01-19T12:36:30.884Z,4.93
2023-01-19T12:39:02.341Z,3.40
2023-01-19T12:41:36.383Z,4.03
2023-01-19T12:44:11.811Z,6.57
2023-01-19T12:46:47.489Z,3.42
2023-01-19T12:49:27.714Z,4.97
2023-01-19T12:52:16.205Z,5.40
2023-01-19T12:55:14.418Z,3.45
2023-01-19T13:00:22.349Z,7.22
2023-01-19T13:02:57.919Z,4.55
2023-01-19T13:05:32.495Z,4.20
2023-01-19T13:08:02.312Z,5.47
2023-01-19T13:11:02.598Z,5.85
2023-01-19T13:13:38.905Z,4.32
2023-01-19T13:16:20.538Z,4.45
2023-01-19T13:18:52.433Z,6.30
2023-01-19T13:21:44.301Z,6.63
2023-01-19T13:26:49.614Z,6.32
2023-01-19T13:29:37.160Z,6.18
2023-01-19T13:32:10.809Z,6.25
2023-01-19T13:34:42.547Z,4.43
2023-01-19T13:37:18.729Z,5.88
2023-01-19T13:39:46.412Z,8.73
2023-01-19T13:42:20.888Z,4.97
2023-01-19T13:44:49.344Z,5.47
2023-01-19T13:47:21.355Z,6.40
2023-01-19T13:49:50.565Z,7.22
2023-01-19T13:52:22.739Z,7.10
2023-01-19T13:54:56.754Z,7.47
2023-01-19T13:57:40.548Z,6.60
2023-01-19T14:00:09.904Z,5.90
2023-01-19T14:02:36.389Z,5.28
2023-01-19T14:05:28.227Z,7.60
2023-01-19T14:08:03.589Z,6.03
2023-01-19T14:10:30.231Z,7.05
2023-01-19T14:13:00.124Z,5.57
2023-01-19T14:15:27.870Z,5.50
2023-01-19T14:18:18.869Z,7.35
2023-01-19T14:20:55.775Z,6.32
2023-01-19T14:23:40.812Z,6.32
2023-01-19T14:26:41.835Z,8.77
2023-01-19T14:29:31.750Z,6.43
2023-01-19T14:32:23.070Z,7.68
2023-01-19T14:34:58.364Z,5.38
2023-01-19T14:37:28.919Z,5.35
2023-01-19T14:40:00.882Z,6.43
2023-01-19T14:42:35.696Z,7.07
2023-01-19T14:45:07.814Z,5.95
2023-01-19T14:47:40.561Z,7.82
2023-01-19T14:50:20.237Z,7.07
2023-01-19T14:52:55.050Z,4.55
2023-01-19T14:55:52.394Z,7.47
2023-01-19T14:58:21.009Z,5.85
2023-01-19T15:00:48.233Z,6.75
2023-01-19T15:03:15.355Z,7.18
2023-01-19T15:05:46.602Z,8.88
2023-01-19T15:08:17.374Z,6.30
2023-01-19T15:10:44.565Z,5.63
2023-01-19T15:13:18.071Z,7.10
2023-01-19T15:15:44.340Z,5.18
2023-01-19T15:18:15.492Z,6.13
2023-01-19T15:20:41.833Z,6.95
2023-01-19T15:23:10.490Z,5.32
2023-01-19T15:25:37.413Z,7.20
2023-01-19T15:28:13.799Z,7.00
2023-01-19T15:30:40.233Z,7.90
2023-01-19T15:33:06.728Z,4.93
2023-01-19T15:35:33.147Z,8.05
2023-01-19T15:37:59.914Z,7.20
2023-01-19T15:40:26.300Z,5.85
2023-01-19T15:42:52.636Z,5.85
2023-01-19T15:45:38.340Z,5.03
2023-01-19T15:48:09.124Z,6.03
2023-01-19T15:50:40.784Z,7.82
2023-01-19T15:53:10.706Z,6.07
2023-01-19T15:55:36.999Z,7.57
2023-01-19T15:58:03.293Z,6.00
2023-01-19T16:00:31.518Z,5.50
2023-01-19T16:02:58.573Z,6.57
2023-01-19T16:05:37.474Z,5.18
2023-01-19T16:08:08.579Z,6.35
2023-01-19T16:10:35.242Z,8.35
2023-01-19T16:13:01.653Z,6.50
2023-01-19T16:15:27.931Z,7.57
2023-01-19T16:17:54.204Z,6.55
2023-01-19T16:20:20.593Z,7.32
2023-01-19T16:22:46.904Z,7.57
2023-01-19T16:25:13.235Z,6.95
2023-01-19T16:27:39.517Z,6.68
2023-01-19T16:30:06.503Z,5.32
2023-01-19T16:32:33.438Z,5.75
2023-01-19T16:34:59.935Z,9.35
2023-01-19T16:37:27.997Z,8.27
2023-01-19T16:39:54.457Z,7.65
2023-01-19T16:42:20.828Z,8.20
2023-01-19T16:44:47.159Z,6.38
2023-01-19T16:47:13.444Z,7.60
2023-01-19T16:49:40.093Z,6.72
2023-01-19T16:52:06.384Z,5.57
2023-01-19T16:54:32.679Z,6.18
2023-01-19T16:56:59.403Z,7.22
2023-01-19T16:59:26.077Z,5.90
2023-01-19T17:01:53.595Z,9.07
2023-01-19T17:04:22.277Z,7.28
2023-01-19T17:06:48.676Z,8.70
2023-01-19T17:09:15.374Z,11.32
2023-01-19T17:11:42.333Z,12.02
2023-01-19T17:14:12.739Z,11.90
2023-01-19T17:16:39.574Z,12.45
2023-01-19T17:19:06.931Z,13.52
2023-01-19T17:21:34.024Z,11.23
2023-01-19T17:24:00.902Z,12.15
2023-01-19T17:26:28.935Z,12.68
2023-01-19T17:29:02.069Z,10.65
2023-01-19T17:31:29.240Z,12.57
2023-01-19T17:33:56.001Z,13.23
2023-01-19T17:36:23.837Z,12.63
2023-01-19T17:43:44.500Z,7.80
2023-01-19T17:46:11.750Z,10.13
2023-01-19T17:48:38.744Z,21.63
2023-01-19T17:51:07.056Z,19.88
2023-01-19T17:53:34.053Z,13.60
2023-01-19T17:56:08.818Z,16.40
2023-01-19T17:58:35.547Z,14.73
2023-01-19T18:01:13.189Z,18.70
2023-01-19T18:03:40.446Z,18.00
2023-01-19T18:06:07.408Z,16.20
2023-01-19T18:08:34.550Z,16.70
2023-01-19T18:11:02.056Z,16.73
2023-01-19T18:13:29.032Z,18.35
2023-01-19T18:16:08.191Z,17.08
2023-01-19T18:18:35.530Z,15.85
2023-01-19T18:21:04.820Z,18.63
2023-01-19T18:23:31.183Z,15.10
2023-01-19T18:25:59.106Z,16.90
2023-01-19T18:28:25.540Z,14.32
2023-01-19T18:30:52.053Z,16.73
2023-01-19T18:33:18.396Z,15.27
2023-01-19T18:35:45.421Z,15.68
2023-01-19T18:38:11.854Z,12.55
2023-01-19T18:40:38.169Z,13.65
2023-01-19T18:43:04.486Z,15.25
2023-01-19T18:45:30.817Z,17.85
2023-01-19T18:47:57.137Z,16.08
2023-01-19T18:50:23.537Z,12.07
2023-01-19T18:52:49.921Z,17.27
2023-01-19T18:55:16.409Z,15.52
2023-01-19T18:57:42.695Z,11.48
2023-01-19T19:00:09.792Z,11.13
2023-01-19T19:02:36.085Z,15.57
2023-01-19T19:05:02.412Z,15.32
2023-01-19T19:07:29.067Z,13.35
2023-01-19T19:09:55.520Z,17.77
2023-01-19T19:12:21.857Z,17.67
2023-01-19T19:14:48.215Z,16.65
2023-01-19T19:17:14.588Z,22.70
2023-01-19T19:19:40.909Z,17.65
2023-01-19T19:22:07.212Z,16.25
2023-01-19T19:24:33.501Z,12.48
2023-01-19T19:26:59.820Z,17.88
2023-01-19T19:29:26.119Z,18.38
2023-01-19T19:31:52.534Z,13.77
2023-01-19T19:34:18.852Z,11.75
2023-01-19T19:36:45.994Z,9.75
2023-01-19T19:39:12.405Z,10.43
2023-01-19T19:41:38.713Z,20.67
2023-01-19T19:44:05.265Z,19.95
2023-01-19T19:46:31.616Z,15.05
2023-01-19T19:48:58.158Z,13.07
2023-01-19T19:51:27.140Z,14.75
2023-01-19T19:53:59.828Z,9.95
2023-01-19T19:56:28.915Z,15.25
2023-01-19T19:58:56.934Z,16.02
2023-01-19T20:01:29.971Z,15.85
2023-01-19T20:03:58.776Z,12.15
2023-01-19T20:06:26.761Z,19.52
2023-01-19T20:08:55.828Z,11.48
2023-01-19T20:11:25.791Z,11.52
2023-01-19T20:13:52.720Z,16.08
2023-01-19T20:16:21.689Z,11.82
2023-01-19T20:18:50.079Z,12.95
2023-01-19T20:21:28.263Z,12.00
2023-01-19T20:23:56.293Z,11.45
2023-01-19T20:26:26.815Z,14.65
2023-01-19T20:28:54.139Z,13.68
2023-01-19T20:31:42.300Z,12.52
2023-01-19T20:34:10.794Z,11.00
2023-01-19T20:36:37.470Z,12.40
2023-01-19T20:39:05.937Z,14.77
2023-01-19T20:41:32.190Z,13.27
2023-01-19T20:43:58.480Z,12.93
2023-01-19T20:46:24.805Z,12.73
2023-01-19T20:48:51.166Z,13.00
2023-01-19T20:51:17.751Z,12.07
2023-01-19T20:53:44.234Z,14.55
2023-01-19T20:56:12.459Z,19.00
2023-01-19T20:58:40.217Z,13.88
2023-01-19T21:01:15.927Z,13.57
2023-01-19T21:03:42.510Z,13.85
2023-01-19T21:06:09.165Z,15.07
2023-01-19T21:08:35.944Z,14.25
2023-01-19T21:11:03.226Z,13.57
2023-01-19T21:13:29.509Z,14.95
2023-01-19T21:15:56.018Z,10.50
2023-01-19T21:18:22.295Z,11.20
2023-01-19T21:20:49.040Z,10.52
2023-01-19T21:23:15.757Z,14.48
2023-01-19T21:26:08.333Z,12.13
2023-01-19T21:28:34.622Z,12.07
2023-01-19T21:31:12.539Z,11.57
2023-01-19T21:33:42.604Z,12.52
2023-01-19T21:36:10.639Z,12.55
2023-01-19T21:38:37.976Z,12.52
2023-01-19T21:41:09.423Z,16.90
2023-01-19T21:43:37.506Z,12.85
2023-01-19T21:46:20.456Z,12.20
2023-01-19T21:48:47.390Z,15.02
2023-01-19T21:51:14.849Z,13.30
2023-01-19T21:53:41.320Z,11.05
2023-01-19T21:56:09.209Z,11.90
2023-01-19T21:58:35.745Z,10.55
2023-01-19T22:01:07.236Z,9.18
2023-01-19T22:03:33.753Z,11.10
2023-01-19T22:06:05.913Z,11.63
2023-01-19T22:08:32.737Z,9.82
2023-01-19T22:11:12.681Z,12.05
2023-01-19T22:13:39.744Z,12.32
2023-01-19T22:16:09.209Z,13.88
2023-01-19T22:18:36.512Z,10.82
2023-01-19T22:21:09.671Z,12.05
2023-01-19T22:23:36.360Z,11.63
2023-01-19T22:26:02.820Z,11.55
2023-01-19T22:28:29.125Z,11.82
2023-01-19T22:31:01.683Z,11.10
2023-01-19T22:33:28.492Z,12.10
2023-01-19T22:35:54.823Z,11.30
2023-01-19T22:38:21.130Z,9.20
2023-01-19T22:40:47.432Z,11.25
2023-01-19T22:43:13.722Z,10.52
2023-01-19T22:45:40.763Z,10.68
2023-01-19T22:48:07.186Z,10.82
2023-01-19T22:50:34.979Z,13.35
2023-01-19T22:53:01.253Z,13.32
2023-01-19T22:55:29.714Z,11.43
2023-01-19T22:57:55.994Z,10.15
2023-01-19T23:00:22.277Z,11.18
2023-01-19T23:02:48.650Z,14.30
2023-01-19T23:05:15.365Z,11.70
2023-01-19T23:07:41.867Z,13.80
2023-01-19T23:10:08.975Z,11.07
2023-01-19T23:12:35.250Z,11.73
2023-01-19T23:15:01.536Z,11.48
2023-01-19T23:17:27.889Z,10.77
2023-01-19T23:19:54.169Z,14.15
2023-01-19T23:22:20.441Z,13.60
2023-01-19T23:24:46.732Z,14.82
2023-01-19T23:27:12.997Z,15.50
2023-01-19T23:29:39.266Z,13.38
2023-01-19T23:32:05.700Z,13.02
2023-01-19T23:34:31.978Z,13.02
2023-01-19T23:36:58.248Z,11.38
2023-01-19T23:39:24.636Z,12.73
2023-01-19T23:41:50.910Z,11.77
2023-01-19T23:44:17.896Z,10.52
2023-01-19T23:46:44.471Z,11.93
2023-01-19T23:49:11.927Z,10.25
2023-01-19T23:51:39.130Z,12.55
2023-01-19T23:54:05.541Z,12.35
2023-01-19T23:56:34.696Z,10.88
2023-01-19T23:59:04.618Z,12.40
